EDT,Max TemperatureF,Mean TemperatureF,Min TemperatureF,Max Dew PointF,MeanDew PointF,Min DewpointF,Max Humidity, Mean Humidity, Min Humidity, Max Sea Level PressureIn, Mean Sea Level PressureIn, Min Sea Level PressureIn, Max VisibilityMiles, Mean VisibilityMiles, Min VisibilityMiles, Max Wind SpeedMPH, Mean Wind SpeedMPH, Max Gust SpeedMPH,PrecipitationIn, CloudCover, Events, WindDirDegrees
2013-5-1,79,54,30,38,31,26,100,67,15,30.46,30.43,30.39,10,7,0,10,1,18,0.00,0,Fog,143
2013-5-2,78,55,34,41,35,27,100,66,23,30.53,30.45,30.40,10,9,0,16,2,25,0.00,2,Fog,120
2013-5-3,68,47,28,44,32,27,100,82,37,30.57,30.51,30.39,10,5,0,8,1,,0.00,0,Fog,68
2013-5-4,73,54,35,43,36,25,100,83,17,30.40,30.36,30.26,10,5,0,13,1,21,0.00,1,Fog,79
2013-5-5,75,50,28,39,31,28,100,82,19,30.34,30.30,30.20,10,4,0,14,1,,0.00,0,Fog,144
2013-5-6,77,54,30,44,35,24,100,80,14,30.27,30.22,30.12,10,4,0,13,1,16,0.00,0,Fog,145
2013-5-7,82,58,35,52,41,31,100,80,16,30.19,30.14,30.04,10,5,0,10,2,21,0.00,2,Fog,219
2013-5-8,80,60,42,61,49,43,100,87,35,30.22,30.16,30.11,10,6,0,15,2,23,0.08,2,Fog-Rain,148
2013-5-9,68,60,51,59,56,52,100,91,68,30.09,29.97,29.91,10,6,0,8,3,,0.40,7,Fog-Rain-Thunderstorm,121
2013-5-10,77,62,53,63,56,54,100,86,53,29.95,29.92,29.90,10,8,1,6,1,,0.14,6,Rain,143
2013-5-11,66,58,51,63,56,52,100,93,82,29.90,29.75,29.66,10,8,2,8,2,,0.27,7,Rain,142
2013-5-12,71,56,42,58,51,26,100,83,36,29.75,29.63,29.54,10,6,0,13,2,20,0.03,6,Fog-Rain,237
2013-5-13,55,47,39,31,27,24,67,47,33,30.03,29.88,29.76,10,10,10,15,7,28,0.00,3,,247
2013-5-14,59,44,28,34,27,22,100,66,25,30.04,30.01,29.96,10,7,0,13,3,21,0.00,3,Fog,337
2013-5-15,66,48,30,49,37,24,100,69,23,30.03,29.84,29.66,10,8,2,13,3,22,0.11,4,Rain,186
2013-5-16,79,61,45,52,44,32,100,74,20,29.82,29.64,29.57,10,6,0,14,3,32,0.01,4,Fog,284
2013-5-17,66,55,44,42,37,32,85,53,29,30.22,30.02,29.83,10,10,10,15,6,26,0.00,3,,327
2013-5-18,71,52,35,44,39,33,100,78,28,30.34,30.27,30.23,10,7,0,8,1,16,0.00,4,Fog,108
2013-5-19,62,50,39,50,45,39,100,89,62,30.38,30.31,30.23,10,8,0,6,2,,0.12,6,Fog-Rain,113
2013-5-20,77,62,50,61,52,48,100,86,46,30.21,30.05,29.94,10,9,3,8,1,18,0.15,6,Rain,198
2013-5-21,55,52,48,55,51,48,100,97,88,30.15,30.01,29.95,10,4,0,16,3,22,0.98,6,Fog-Rain-Thunderstorm,106
2013-5-22,57,52,48,54,51,48,100,93,78,30.00,29.96,29.93,10,9,3,6,1,,0.17,8,Rain,125
2013-5-23,72,60,50,66,56,48,100,90,73,29.95,29.86,29.77,10,8,2,9,2,,0.12,7,Rain,178
2013-5-24,71,59,48,66,59,44,100,88,71,29.88,29.73,29.65,10,10,6,12,4,17,0.53,8,Rain,338
2013-5-25,51,46,41,47,44,37,100,89,71,29.87,29.79,29.72,10,8,2,14,6,22,1.05,8,Rain,353
2013-5-26,55,48,41,40,37,32,89,67,51,30.01,29.80,29.68,10,10,10,9,6,18,0.04,7,Rain,334
2013-5-27,68,50,34,40,34,30,92,55,25,30.19,30.09,30.03,10,10,10,15,5,28,0.00,1,,285
2013-5-28,75,54,35,43,36,31,100,63,22,30.25,30.21,30.16,10,9,1,10,2,17,0.00,0,,183
2013-5-29,57,50,44,55,50,41,100,94,86,30.20,30.11,30.00,10,9,2,4,0,,0.13,7,Rain,335
2013-5-30,87,70,53,63,56,54,100,81,35,30.04,30.00,29.98,10,7,0,12,2,29,0.00,3,Fog,274
2013-5-31,93,73,55,64,60,54,100,67,36,30.07,30.00,29.90,10,9,2,8,3,,0.00,0,,238